sensor_id;sensor_type;location;lat;lon;timestamp;P1;durP1;ratioP1;P2;durP2;ratioP2
44480;SDS011;30184;42.018;23.670;2022-07-31T00:01:29;10.55;;;5.50;;
44480;SDS011;30184;42.018;23.670;2022-07-31T00:03:59;12.60;;;5.68;;
44480;SDS011;30184;42.018;23.670;2022-07-31T00:06:29;9.40;;;6.03;;
44480;SDS011;30184;42.018;23.670;2022-07-31T00:08:58;10.93;;;6.50;;
44480;SDS011;30184;42.018;23.670;2022-07-31T00:11:27;11.48;;;6.15;;
44480;SDS011;30184;42.018;23.670;2022-07-31T00:13:56;10.98;;;6.57;;
44480;SDS011;30184;42.018;23.670;2022-07-31T00:16:25;11.70;;;7.10;;
44480;SDS011;30184;42.018;23.670;2022-07-31T00:18:54;12.02;;;6.88;;
44480;SDS011;30184;42.018;23.670;2022-07-31T00:21:25;7.88;;;5.80;;
44480;SDS011;30184;42.018;23.670;2022-07-31T00:23:54;10.65;;;5.72;;
44480;SDS011;30184;42.018;23.670;2022-07-31T00:26:23;7.82;;;5.70;;
44480;SDS011;30184;42.018;23.670;2022-07-31T00:28:52;7.60;;;5.53;;
44480;SDS011;30184;42.018;23.670;2022-07-31T00:31:22;11.50;;;6.65;;
44480;SDS011;30184;42.018;23.670;2022-07-31T00:33:51;9.68;;;6.28;;
44480;SDS011;30184;42.018;23.670;2022-07-31T00:36:20;10.60;;;6.50;;
44480;SDS011;30184;42.018;23.670;2022-07-31T00:38:51;9.27;;;6.30;;
44480;SDS011;30184;42.018;23.670;2022-07-31T00:41:20;8.00;;;5.57;;
44480;SDS011;30184;42.018;23.670;2022-07-31T00:43:49;11.80;;;6.05;;
44480;SDS011;30184;42.018;23.670;2022-07-31T00:46:18;10.38;;;6.20;;
44480;SDS011;30184;42.018;23.670;2022-07-31T00:48:47;11.70;;;5.88;;
44480;SDS011;30184;42.018;23.670;2022-07-31T00:51:16;10.85;;;5.53;;
44480;SDS011;30184;42.018;23.670;2022-07-31T00:53:45;8.45;;;5.63;;
44480;SDS011;30184;42.018;23.670;2022-07-31T00:56:15;8.43;;;5.43;;
44480;SDS011;30184;42.018;23.670;2022-07-31T00:58:44;9.05;;;5.72;;
44480;SDS011;30184;42.018;23.670;2022-07-31T01:01:14;10.23;;;6.30;;
44480;SDS011;30184;42.018;23.670;2022-07-31T01:03:43;9.75;;;6.45;;
44480;SDS011;30184;42.018;23.670;2022-07-31T01:06:12;8.60;;;5.72;;
44480;SDS011;30184;42.018;23.670;2022-07-31T01:08:41;11.68;;;6.25;;
44480;SDS011;30184;42.018;23.670;2022-07-31T01:11:12;9.68;;;5.65;;
44480;SDS011;30184;42.018;23.670;2022-07-31T01:13:48;11.05;;;6.30;;
44480;SDS011;30184;42.018;23.670;2022-07-31T01:16:22;11.45;;;6.20;;
44480;SDS011;30184;42.018;23.670;2022-07-31T01:18:54;10.02;;;6.30;;
44480;SDS011;30184;42.018;23.670;2022-07-31T01:21:26;7.60;;;5.30;;
44480;SDS011;30184;42.018;23.670;2022-07-31T01:24:03;13.35;;;5.82;;
44480;SDS011;30184;42.018;23.670;2022-07-31T01:27:11;10.90;;;5.83;;
44480;SDS011;30184;42.018;23.670;2022-07-31T01:29:54;9.75;;;6.05;;
44480;SDS011;30184;42.018;23.670;2022-07-31T01:32:27;9.15;;;5.50;;
44480;SDS011;30184;42.018;23.670;2022-07-31T01:35:00;10.25;;;5.57;;
44480;SDS011;30184;42.018;23.670;2022-07-31T01:37:33;8.93;;;5.95;;
44480;SDS011;30184;42.018;23.670;2022-07-31T01:40:09;8.45;;;5.78;;
44480;SDS011;30184;42.018;23.670;2022-07-31T01:42:42;7.82;;;5.47;;
44480;SDS011;30184;42.018;23.670;2022-07-31T01:45:17;10.10;;;5.63;;
44480;SDS011;30184;42.018;23.670;2022-07-31T01:47:48;9.40;;;5.90;;
44480;SDS011;30184;42.018;23.670;2022-07-31T01:50:19;11.05;;;5.72;;
44480;SDS011;30184;42.018;23.670;2022-07-31T01:52:49;9.82;;;6.63;;
44480;SDS011;30184;42.018;23.670;2022-07-31T01:55:19;10.10;;;6.00;;
44480;SDS011;30184;42.018;23.670;2022-07-31T01:57:50;10.85;;;6.55;;
44480;SDS011;30184;42.018;23.670;2022-07-31T02:00:22;11.48;;;5.60;;
44480;SDS011;30184;42.018;23.670;2022-07-31T02:02:51;16.92;;;6.15;;
44480;SDS011;30184;42.018;23.670;2022-07-31T02:05:24;10.40;;;6.22;;
44480;SDS011;30184;42.018;23.670;2022-07-31T02:07:55;10.43;;;6.28;;
44480;SDS011;30184;42.018;23.670;2022-07-31T02:10:26;10.82;;;5.43;;
44480;SDS011;30184;42.018;23.670;2022-07-31T02:12:56;14.60;;;7.05;;
44480;SDS011;30184;42.018;23.670;2022-07-31T02:15:30;10.23;;;5.90;;
44480;SDS011;30184;42.018;23.670;2022-07-31T02:18:02;12.65;;;6.18;;
44480;SDS011;30184;42.018;23.670;2022-07-31T02:20:32;11.15;;;6.28;;
44480;SDS011;30184;42.018;23.670;2022-07-31T02:23:01;8.55;;;5.45;;
44480;SDS011;30184;42.018;23.670;2022-07-31T02:25:31;7.20;;;5.20;;
44480;SDS011;30184;42.018;23.670;2022-07-31T02:28:04;10.18;;;5.88;;
44480;SDS011;30184;42.018;23.670;2022-07-31T02:30:41;6.70;;;4.93;;
44480;SDS011;30184;42.018;23.670;2022-07-31T02:33:12;10.80;;;5.38;;
44480;SDS011;30184;42.018;23.670;2022-07-31T02:35:45;12.00;;;5.03;;
44480;SDS011;30184;42.018;23.670;2022-07-31T02:40:48;10.70;;;6.38;;
44480;SDS011;30184;42.018;23.670;2022-07-31T02:43:18;8.10;;;5.68;;
44480;SDS011;30184;42.018;23.670;2022-07-31T02:45:50;11.38;;;5.80;;
44480;SDS011;30184;42.018;23.670;2022-07-31T02:48:20;9.50;;;5.72;;
44480;SDS011;30184;42.018;23.670;2022-07-31T03:04:58;10.57;;;5.72;;
44480;SDS011;30184;42.018;23.670;2022-07-31T03:07:27;10.68;;;5.40;;
44480;SDS011;30184;42.018;23.670;2022-07-31T03:13:25;7.63;;;5.32;;
44480;SDS011;30184;42.018;23.670;2022-07-31T03:15:57;13.00;;;6.82;;
44480;SDS011;30184;42.018;23.670;2022-07-31T03:18:28;10.00;;;6.05;;
44480;SDS011;30184;42.018;23.670;2022-07-31T04:56:56;18.63;;;6.03;;
44480;SDS011;30184;42.018;23.670;2022-07-31T04:59:25;11.18;;;6.63;;
44480;SDS011;30184;42.018;23.670;2022-07-31T05:01:55;9.52;;;5.65;;
44480;SDS011;30184;42.018;23.670;2022-07-31T05:04:25;10.43;;;7.78;;
44480;SDS011;30184;42.018;23.670;2022-07-31T05:06:55;6.97;;;4.90;;
44480;SDS011;30184;42.018;23.670;2022-07-31T05:09:24;10.75;;;5.30;;
44480;SDS011;30184;42.018;23.670;2022-07-31T05:12:00;17.75;;;5.10;;
44480;SDS011;30184;42.018;23.670;2022-07-31T05:14:30;8.48;;;4.57;;
44480;SDS011;30184;42.018;23.670;2022-07-31T05:16:59;11.45;;;5.22;;
44480;SDS011;30184;42.018;23.670;2022-07-31T05:19:46;9.55;;;4.25;;
44480;SDS011;30184;42.018;23.670;2022-07-31T05:22:16;7.63;;;4.70;;
44480;SDS011;30184;42.018;23.670;2022-07-31T05:25:08;11.50;;;5.05;;
44480;SDS011;30184;42.018;23.670;2022-07-31T05:27:39;13.70;;;7.32;;
44480;SDS011;30184;42.018;23.670;2022-07-31T05:30:09;9.60;;;5.72;;
44480;SDS011;30184;42.018;23.670;2022-07-31T05:32:39;14.13;;;7.30;;
44480;SDS011;30184;42.018;23.670;2022-07-31T05:35:08;7.43;;;4.50;;
44480;SDS011;30184;42.018;23.670;2022-07-31T05:37:38;9.98;;;4.88;;
44480;SDS011;30184;42.018;23.670;2022-07-31T05:40:09;7.75;;;5.20;;
44480;SDS011;30184;42.018;23.670;2022-07-31T05:42:59;7.00;;;4.53;;
44480;SDS011;30184;42.018;23.670;2022-07-31T05:45:44;8.68;;;4.97;;
44480;SDS011;30184;42.018;23.670;2022-07-31T05:48:14;9.60;;;4.68;;
44480;SDS011;30184;42.018;23.670;2022-07-31T05:50:45;6.93;;;3.70;;
44480;SDS011;30184;42.018;23.670;2022-07-31T05:53:15;5.38;;;4.15;;
44480;SDS011;30184;42.018;23.670;2022-07-31T05:56:17;10.32;;;5.50;;
44480;SDS011;30184;42.018;23.670;2022-07-31T05:58:50;8.50;;;3.97;;
44480;SDS011;30184;42.018;23.670;2022-07-31T06:01:20;7.35;;;3.90;;
44480;SDS011;30184;42.018;23.670;2022-07-31T06:03:49;7.13;;;4.60;;
44480;SDS011;30184;42.018;23.670;2022-07-31T06:06:39;6.13;;;4.15;;
44480;SDS011;30184;42.018;23.670;2022-07-31T06:09:10;6.45;;;4.63;;
44480;SDS011;30184;42.018;23.670;2022-07-31T06:11:42;5.85;;;4.40;;
44480;SDS011;30184;42.018;23.670;2022-07-31T06:14:13;6.75;;;4.28;;
44480;SDS011;30184;42.018;23.670;2022-07-31T06:17:03;11.50;;;5.20;;
44480;SDS011;30184;42.018;23.670;2022-07-31T06:19:34;6.45;;;4.65;;
44480;SDS011;30184;42.018;23.670;2022-07-31T06:22:04;7.07;;;4.65;;
44480;SDS011;30184;42.018;23.670;2022-07-31T06:24:33;6.90;;;4.80;;
44480;SDS011;30184;42.018;23.670;2022-07-31T06:27:03;6.95;;;4.85;;
44480;SDS011;30184;42.018;23.670;2022-07-31T06:29:34;8.23;;;4.47;;
44480;SDS011;30184;42.018;23.670;2022-07-31T06:32:04;9.13;;;4.35;;
44480;SDS011;30184;42.018;23.670;2022-07-31T06:34:35;8.55;;;4.28;;
44480;SDS011;30184;42.018;23.670;2022-07-31T06:37:05;5.93;;;4.18;;
44480;SDS011;30184;42.018;23.670;2022-07-31T06:39:34;5.75;;;4.43;;
44480;SDS011;30184;42.018;23.670;2022-07-31T06:42:29;6.82;;;4.28;;
44480;SDS011;30184;42.018;23.670;2022-07-31T06:45:06;14.65;;;6.10;;
44480;SDS011;30184;42.018;23.670;2022-07-31T06:48:08;6.82;;;5.00;;
44480;SDS011;30184;42.018;23.670;2022-07-31T06:50:45;7.85;;;4.75;;
44480;SDS011;30184;42.018;23.670;2022-07-31T06:53:31;5.35;;;4.07;;
44480;SDS011;30184;42.018;23.670;2022-07-31T06:56:03;6.90;;;4.18;;
44480;SDS011;30184;42.018;23.670;2022-07-31T06:58:32;8.88;;;5.03;;
44480;SDS011;30184;42.018;23.670;2022-07-31T07:01:03;9.43;;;4.88;;
44480;SDS011;30184;42.018;23.670;2022-07-31T07:03:33;9.07;;;5.25;;
44480;SDS011;30184;42.018;23.670;2022-07-31T07:06:02;8.07;;;5.63;;
44480;SDS011;30184;42.018;23.670;2022-07-31T07:08:32;10.30;;;6.38;;
44480;SDS011;30184;42.018;23.670;2022-07-31T07:11:01;10.82;;;6.88;;
44480;SDS011;30184;42.018;23.670;2022-07-31T07:13:34;7.57;;;5.05;;
44480;SDS011;30184;42.018;23.670;2022-07-31T07:16:05;7.18;;;5.05;;
44480;SDS011;30184;42.018;23.670;2022-07-31T07:18:34;6.60;;;4.30;;
44480;SDS011;30184;42.018;23.670;2022-07-31T07:21:03;7.03;;;5.20;;
44480;SDS011;30184;42.018;23.670;2022-07-31T07:23:33;6.85;;;4.22;;
44480;SDS011;30184;42.018;23.670;2022-07-31T07:26:19;12.25;;;6.40;;
44480;SDS011;30184;42.018;23.670;2022-07-31T07:28:48;7.43;;;4.53;;
44480;SDS011;30184;42.018;23.670;2022-07-31T07:31:19;8.65;;;5.22;;
44480;SDS011;30184;42.018;23.670;2022-07-31T07:33:49;6.88;;;4.60;;
44480;SDS011;30184;42.018;23.670;2022-07-31T07:36:22;6.32;;;4.13;;
44480;SDS011;30184;42.018;23.670;2022-07-31T07:38:56;7.05;;;5.28;;
44480;SDS011;30184;42.018;23.670;2022-07-31T07:41:33;9.98;;;5.07;;
44480;SDS011;30184;42.018;23.670;2022-07-31T07:44:09;8.20;;;5.35;;
44480;SDS011;30184;42.018;23.670;2022-07-31T07:46:40;5.25;;;3.72;;
44480;SDS011;30184;42.018;23.670;2022-07-31T07:49:13;5.50;;;3.13;;
44480;SDS011;30184;42.018;23.670;2022-07-31T07:52:03;5.50;;;3.30;;
44480;SDS011;30184;42.018;23.670;2022-07-31T07:55:09;8.07;;;3.10;;
44480;SDS011;30184;42.018;23.670;2022-07-31T07:58:09;7.60;;;4.57;;
44480;SDS011;30184;42.018;23.670;2022-07-31T08:00:57;4.32;;;3.30;;
44480;SDS011;30184;42.018;23.670;2022-07-31T08:03:27;8.27;;;4.20;;
44480;SDS011;30184;42.018;23.670;2022-07-31T08:05:57;6.65;;;4.05;;
44480;SDS011;30184;42.018;23.670;2022-07-31T08:08:26;7.38;;;3.72;;
44480;SDS011;30184;42.018;23.670;2022-07-31T08:11:15;4.85;;;3.22;;
44480;SDS011;30184;42.018;23.670;2022-07-31T08:14:03;4.97;;;3.22;;
44480;SDS011;30184;42.018;23.670;2022-07-31T08:16:51;4.53;;;3.40;;
44480;SDS011;30184;42.018;23.670;2022-07-31T08:19:22;5.35;;;3.28;;
44480;SDS011;30184;42.018;23.670;2022-07-31T08:21:51;5.78;;;3.42;;
44480;SDS011;30184;42.018;23.670;2022-07-31T08:24:23;6.18;;;3.42;;
44480;SDS011;30184;42.018;23.670;2022-07-31T08:26:52;13.40;;;3.47;;
44480;SDS011;30184;42.018;23.670;2022-07-31T08:29:39;6.90;;;3.50;;
44480;SDS011;30184;42.018;23.670;2022-07-31T08:32:15;4.40;;;3.15;;
44480;SDS011;30184;42.018;23.670;2022-07-31T08:34:58;4.65;;;3.17;;
44480;SDS011;30184;42.018;23.670;2022-07-31T08:37:28;4.20;;;3.38;;
44480;SDS011;30184;42.018;23.670;2022-07-31T08:39:58;5.72;;;3.53;;
44480;SDS011;30184;42.018;23.670;2022-07-31T08:42:28;5.88;;;3.42;;
44480;SDS011;30184;42.018;23.670;2022-07-31T08:44:58;6.93;;;3.67;;
44480;SDS011;30184;42.018;23.670;2022-07-31T08:47:31;5.72;;;3.78;;
44480;SDS011;30184;42.018;23.670;2022-07-31T08:50:10;4.38;;;3.10;;
44480;SDS011;30184;42.018;23.670;2022-07-31T08:52:42;5.30;;;3.47;;
44480;SDS011;30184;42.018;23.670;2022-07-31T08:55:17;5.75;;;3.35;;
44480;SDS011;30184;42.018;23.670;2022-07-31T08:57:50;5.10;;;3.47;;
44480;SDS011;30184;42.018;23.670;2022-07-31T09:00:19;5.38;;;3.30;;
44480;SDS011;30184;42.018;23.670;2022-07-31T09:02:50;6.72;;;3.75;;
44480;SDS011;30184;42.018;23.670;2022-07-31T09:05:41;7.90;;;4.10;;
44480;SDS011;30184;42.018;23.670;2022-07-31T09:08:14;4.13;;;3.42;;
44480;SDS011;30184;42.018;23.670;2022-07-31T09:10:47;5.25;;;3.40;;
44480;SDS011;30184;42.018;23.670;2022-07-31T09:13:17;7.38;;;3.15;;
44480;SDS011;30184;42.018;23.670;2022-07-31T09:15:50;4.75;;;3.05;;
44480;SDS011;30184;42.018;23.670;2022-07-31T09:18:25;5.80;;;3.10;;
44480;SDS011;30184;42.018;23.670;2022-07-31T09:21:10;8.90;;;3.60;;
44480;SDS011;30184;42.018;23.670;2022-07-31T09:23:43;4.72;;;3.40;;
44480;SDS011;30184;42.018;23.670;2022-07-31T09:26:14;6.18;;;3.90;;
44480;SDS011;30184;42.018;23.670;2022-07-31T09:28:44;6.22;;;3.90;;
44480;SDS011;30184;42.018;23.670;2022-07-31T09:31:15;5.32;;;3.58;;
44480;SDS011;30184;42.018;23.670;2022-07-31T09:33:56;4.82;;;3.35;;
44480;SDS011;30184;42.018;23.670;2022-07-31T09:36:36;8.40;;;3.53;;
44480;SDS011;30184;42.018;23.670;2022-07-31T09:39:28;4.75;;;3.60;;
44480;SDS011;30184;42.018;23.670;2022-07-31T09:42:07;5.05;;;3.58;;
44480;SDS011;30184;42.018;23.670;2022-07-31T09:44:50;5.05;;;3.92;;
44480;SDS011;30184;42.018;23.670;2022-07-31T09:47:20;5.22;;;3.60;;
44480;SDS011;30184;42.018;23.670;2022-07-31T09:49:51;7.75;;;4.25;;
44480;SDS011;30184;42.018;23.670;2022-07-31T09:52:24;7.32;;;4.30;;
44480;SDS011;30184;42.018;23.670;2022-07-31T09:55:04;5.53;;;3.92;;
44480;SDS011;30184;42.018;23.670;2022-07-31T09:57:35;7.75;;;3.72;;
44480;SDS011;30184;42.018;23.670;2022-07-31T10:00:07;5.20;;;3.75;;
44480;SDS011;30184;42.018;23.670;2022-07-31T10:02:42;7.47;;;4.00;;
44480;SDS011;30184;42.018;23.670;2022-07-31T10:05:12;6.55;;;4.05;;
44480;SDS011;30184;42.018;23.670;2022-07-31T10:07:44;4.85;;;3.75;;
44480;SDS011;30184;42.018;23.670;2022-07-31T10:10:21;5.65;;;4.00;;
44480;SDS011;30184;42.018;23.670;2022-07-31T10:12:59;6.63;;;4.03;;
44480;SDS011;30184;42.018;23.670;2022-07-31T10:15:34;6.37;;;3.90;;
44480;SDS011;30184;42.018;23.670;2022-07-31T10:18:24;8.73;;;4.43;;
44480;SDS011;30184;42.018;23.670;2022-07-31T10:21:10;7.38;;;4.90;;
44480;SDS011;30184;42.018;23.670;2022-07-31T10:24:11;6.63;;;4.55;;
44480;SDS011;30184;42.018;23.670;2022-07-31T10:26:41;6.80;;;4.25;;
44480;SDS011;30184;42.018;23.670;2022-07-31T10:29:26;9.70;;;5.93;;
44480;SDS011;30184;42.018;23.670;2022-07-31T10:31:56;7.97;;;5.53;;
44480;SDS011;30184;42.018;23.670;2022-07-31T10:34:25;6.55;;;4.05;;
44480;SDS011;30184;42.018;23.670;2022-07-31T10:37:23;4.97;;;4.13;;
44480;SDS011;30184;42.018;23.670;2022-07-31T10:40:24;7.10;;;4.05;;
44480;SDS011;30184;42.018;23.670;2022-07-31T10:43:13;4.65;;;3.78;;
44480;SDS011;30184;42.018;23.670;2022-07-31T10:46:06;5.32;;;4.13;;
44480;SDS011;30184;42.018;23.670;2022-07-31T10:49:02;6.95;;;4.32;;
44480;SDS011;30184;42.018;23.670;2022-07-31T10:51:50;5.63;;;4.13;;
44480;SDS011;30184;42.018;23.670;2022-07-31T10:54:51;8.60;;;4.13;;
44480;SDS011;30184;42.018;23.670;2022-07-31T10:57:43;6.80;;;4.45;;
44480;SDS011;30184;42.018;23.670;2022-07-31T11:00:24;5.57;;;4.15;;
44480;SDS011;30184;42.018;23.670;2022-07-31T11:03:19;6.07;;;4.28;;
44480;SDS011;30184;42.018;23.670;2022-07-31T11:06:08;8.50;;;4.07;;
44480;SDS011;30184;42.018;23.670;2022-07-31T11:09:03;5.28;;;3.75;;
44480;SDS011;30184;42.018;23.670;2022-07-31T11:12:15;6.28;;;4.22;;
44480;SDS011;30184;42.018;23.670;2022-07-31T11:15:15;6.28;;;4.28;;
44480;SDS011;30184;42.018;23.670;2022-07-31T11:18:10;6.65;;;4.60;;
44480;SDS011;30184;42.018;23.670;2022-07-31T11:20:44;5.10;;;4.05;;
44480;SDS011;30184;42.018;23.670;2022-07-31T11:23:15;6.32;;;4.18;;
44480;SDS011;30184;42.018;23.670;2022-07-31T11:25:45;6.13;;;4.05;;
44480;SDS011;30184;42.018;23.670;2022-07-31T11:28:15;6.47;;;4.10;;
44480;SDS011;30184;42.018;23.670;2022-07-31T11:30:51;6.70;;;4.40;;
44480;SDS011;30184;42.018;23.670;2022-07-31T11:33:28;5.35;;;4.22;;
44480;SDS011;30184;42.018;23.670;2022-07-31T11:36:06;5.88;;;4.50;;
44480;SDS011;30184;42.018;23.670;2022-07-31T11:38:38;6.20;;;4.00;;
44480;SDS011;30184;42.018;23.670;2022-07-31T11:41:08;7.85;;;4.35;;
44480;SDS011;30184;42.018;23.670;2022-07-31T11:43:41;7.70;;;5.28;;
44480;SDS011;30184;42.018;23.670;2022-07-31T11:46:17;5.50;;;4.18;;
44480;SDS011;30184;42.018;23.670;2022-07-31T11:48:51;5.10;;;4.05;;
44480;SDS011;30184;42.018;23.670;2022-07-31T11:51:21;6.05;;;4.57;;
44480;SDS011;30184;42.018;23.670;2022-07-31T11:53:52;8.18;;;4.93;;
44480;SDS011;30184;42.018;23.670;2022-07-31T11:56:22;7.65;;;5.53;;
44480;SDS011;30184;42.018;23.670;2022-07-31T11:58:54;5.75;;;4.40;;
44480;SDS011;30184;42.018;23.670;2022-07-31T12:01:26;6.03;;;4.53;;
44480;SDS011;30184;42.018;23.670;2022-07-31T12:03:56;6.22;;;4.80;;
44480;SDS011;30184;42.018;23.670;2022-07-31T12:06:26;6.72;;;4.65;;
44480;SDS011;30184;42.018;23.670;2022-07-31T12:08:58;5.88;;;4.55;;
44480;SDS011;30184;42.018;23.670;2022-07-31T12:11:27;9.10;;;4.65;;
44480;SDS011;30184;42.018;23.670;2022-07-31T12:13:57;6.82;;;4.80;;
44480;SDS011;30184;42.018;23.670;2022-07-31T12:16:37;5.88;;;4.18;;
44480;SDS011;30184;42.018;23.670;2022-07-31T12:19:07;6.72;;;4.50;;
44480;SDS011;30184;42.018;23.670;2022-07-31T12:21:37;6.97;;;4.70;;
44480;SDS011;30184;42.018;23.670;2022-07-31T12:24:10;5.93;;;4.40;;
44480;SDS011;30184;42.018;23.670;2022-07-31T12:26:47;5.65;;;4.13;;
44480;SDS011;30184;42.018;23.670;2022-07-31T12:29:18;7.03;;;4.50;;
44480;SDS011;30184;42.018;23.670;2022-07-31T12:31:50;6.40;;;4.50;;
44480;SDS011;30184;42.018;23.670;2022-07-31T12:34:27;7.80;;;4.35;;
44480;SDS011;30184;42.018;23.670;2022-07-31T12:36:58;9.77;;;6.10;;
44480;SDS011;30184;42.018;23.670;2022-07-31T12:39:28;5.90;;;4.68;;
44480;SDS011;30184;42.018;23.670;2022-07-31T12:41:58;5.50;;;4.60;;
44480;SDS011;30184;42.018;23.670;2022-07-31T12:44:27;8.68;;;5.22;;
44480;SDS011;30184;42.018;23.670;2022-07-31T12:46:58;9.43;;;5.95;;
44480;SDS011;30184;42.018;23.670;2022-07-31T12:49:27;7.13;;;5.70;;
44480;SDS011;30184;42.018;23.670;2022-07-31T12:51:56;7.00;;;5.47;;
44480;SDS011;30184;42.018;23.670;2022-07-31T12:54:25;8.45;;;5.85;;
44480;SDS011;30184;42.018;23.670;2022-07-31T12:56:57;10.98;;;6.40;;
44480;SDS011;30184;42.018;23.670;2022-07-31T12:59:26;8.02;;;6.68;;
44480;SDS011;30184;42.018;23.670;2022-07-31T13:01:55;8.77;;;6.47;;
44480;SDS011;30184;42.018;23.670;2022-07-31T13:04:28;8.60;;;6.57;;
44480;SDS011;30184;42.018;23.670;2022-07-31T13:06:57;9.38;;;6.80;;
44480;SDS011;30184;42.018;23.670;2022-07-31T13:09:27;8.50;;;7.03;;
44480;SDS011;30184;42.018;23.670;2022-07-31T13:11:56;10.68;;;7.65;;
44480;SDS011;30184;42.018;23.670;2022-07-31T13:14:25;9.40;;;7.03;;
44480;SDS011;30184;42.018;23.670;2022-07-31T13:16:54;9.32;;;7.43;;
44480;SDS011;30184;42.018;23.670;2022-07-31T13:19:24;9.57;;;7.80;;
44480;SDS011;30184;42.018;23.670;2022-07-31T13:21:55;11.95;;;7.88;;
44480;SDS011;30184;42.018;23.670;2022-07-31T13:24:24;20.60;;;10.35;;
44480;SDS011;30184;42.018;23.670;2022-07-31T13:26:54;14.65;;;10.07;;
44480;SDS011;30184;42.018;23.670;2022-07-31T13:29:25;14.65;;;10.10;;
44480;SDS011;30184;42.018;23.670;2022-07-31T13:31:54;13.88;;;8.63;;
44480;SDS011;30184;42.018;23.670;2022-07-31T13:34:23;14.05;;;8.25;;
44480;SDS011;30184;42.018;23.670;2022-07-31T13:36:52;10.65;;;8.52;;
44480;SDS011;30184;42.018;23.670;2022-07-31T13:39:25;14.98;;;8.95;;
44480;SDS011;30184;42.018;23.670;2022-07-31T13:41:55;14.68;;;8.65;;
44480;SDS011;30184;42.018;23.670;2022-07-31T13:44:24;14.05;;;8.38;;
44480;SDS011;30184;42.018;23.670;2022-07-31T13:46:54;13.77;;;8.75;;
44480;SDS011;30184;42.018;23.670;2022-07-31T13:49:23;14.48;;;9.35;;
44480;SDS011;30184;42.018;23.670;2022-07-31T13:51:55;12.38;;;9.68;;
44480;SDS011;30184;42.018;23.670;2022-07-31T13:54:26;20.80;;;12.55;;
44480;SDS011;30184;42.018;23.670;2022-07-31T13:56:55;21.10;;;13.25;;
44480;SDS011;30184;42.018;23.670;2022-07-31T13:59:25;13.02;;;9.88;;
44480;SDS011;30184;42.018;23.670;2022-07-31T14:01:55;16.75;;;9.48;;
44480;SDS011;30184;42.018;23.670;2022-07-31T14:04:24;13.02;;;9.32;;
44480;SDS011;30184;42.018;23.670;2022-07-31T14:06:53;12.93;;;8.95;;
44480;SDS011;30184;42.018;23.670;2022-07-31T14:09:22;13.05;;;9.77;;
44480;SDS011;30184;42.018;23.670;2022-07-31T14:11:53;11.85;;;8.75;;
44480;SDS011;30184;42.018;23.670;2022-07-31T14:14:22;14.18;;;9.88;;
44480;SDS011;30184;42.018;23.670;2022-07-31T14:16:51;13.95;;;8.57;;
44480;SDS011;30184;42.018;23.670;2022-07-31T14:19:21;11.23;;;8.95;;
44480;SDS011;30184;42.018;23.670;2022-07-31T14:21:50;13.23;;;8.90;;
44480;SDS011;30184;42.018;23.670;2022-07-31T14:24:19;10.25;;;8.25;;
44480;SDS011;30184;42.018;23.670;2022-07-31T14:26:49;12.23;;;9.23;;
44480;SDS011;30184;42.018;23.670;2022-07-31T14:29:19;13.07;;;9.05;;
44480;SDS011;30184;42.018;23.670;2022-07-31T14:31:48;13.02;;;9.13;;
44480;SDS011;30184;42.018;23.670;2022-07-31T14:34:18;12.02;;;8.98;;
44480;SDS011;30184;42.018;23.670;2022-07-31T14:36:47;11.00;;;9.07;;
44480;SDS011;30184;42.018;23.670;2022-07-31T14:39:16;12.05;;;9.93;;
44480;SDS011;30184;42.018;23.670;2022-07-31T14:41:45;9.60;;;8.57;;
44480;SDS011;30184;42.018;23.670;2022-07-31T14:44:15;13.25;;;9.75;;
44480;SDS011;30184;42.018;23.670;2022-07-31T14:46:48;10.48;;;9.07;;
44480;SDS011;30184;42.018;23.670;2022-07-31T14:49:18;11.07;;;8.15;;
44480;SDS011;30184;42.018;23.670;2022-07-31T14:51:47;10.77;;;8.48;;
44480;SDS011;30184;42.018;23.670;2022-07-31T14:54:16;10.32;;;8.38;;
44480;SDS011;30184;42.018;23.670;2022-07-31T14:56:45;11.68;;;8.95;;
44480;SDS011;30184;42.018;23.670;2022-07-31T14:59:26;12.98;;;8.73;;
44480;SDS011;30184;42.018;23.670;2022-07-31T15:01:58;9.48;;;7.75;;
44480;SDS011;30184;42.018;23.670;2022-07-31T15:04:27;10.82;;;8.23;;
44480;SDS011;30184;42.018;23.670;2022-07-31T15:06:57;9.48;;;8.00;;
44480;SDS011;30184;42.018;23.670;2022-07-31T15:09:39;10.25;;;8.05;;
44480;SDS011;30184;42.018;23.670;2022-07-31T15:12:08;10.40;;;7.93;;
44480;SDS011;30184;42.018;23.670;2022-07-31T15:14:38;11.38;;;8.27;;
44480;SDS011;30184;42.018;23.670;2022-07-31T15:17:10;10.75;;;7.90;;
44480;SDS011;30184;42.018;23.670;2022-07-31T15:19:39;11.70;;;8.73;;
44480;SDS011;30184;42.018;23.670;2022-07-31T15:22:09;11.07;;;8.77;;
44480;SDS011;30184;42.018;23.670;2022-07-31T15:24:38;9.82;;;7.88;;
44480;SDS011;30184;42.018;23.670;2022-07-31T15:27:11;12.48;;;8.02;;
44480;SDS011;30184;42.018;23.670;2022-07-31T15:29:41;10.02;;;8.00;;
44480;SDS011;30184;42.018;23.670;2022-07-31T15:32:12;9.13;;;8.10;;
44480;SDS011;30184;42.018;23.670;2022-07-31T15:34:41;12.63;;;8.75;;
44480;SDS011;30184;42.018;23.670;2022-07-31T15:37:10;9.90;;;8.32;;
44480;SDS011;30184;42.018;23.670;2022-07-31T15:39:40;11.15;;;8.45;;
44480;SDS011;30184;42.018;23.670;2022-07-31T15:42:12;11.30;;;10.05;;
44480;SDS011;30184;42.018;23.670;2022-07-31T18:24:40;22.70;;;17.05;;
44480;SDS011;30184;42.018;23.670;2022-07-31T19:54:48;19.52;;;14.52;;
44480;SDS011;30184;42.018;23.670;2022-07-31T20:13:07;17.05;;;14.10;;
44480;SDS011;30184;42.018;23.670;2022-07-31T20:15:59;19.25;;;14.40;;
44480;SDS011;30184;42.018;23.670;2022-07-31T20:35:11;23.50;;;15.48;;
44480;SDS011;30184;42.018;23.670;2022-07-31T20:38:09;22.23;;;15.10;;
44480;SDS011;30184;42.018;23.670;2022-07-31T20:42:13;22.20;;;15.85;;
44480;SDS011;30184;42.018;23.670;2022-07-31T20:45:40;21.23;;;15.60;;
44480;SDS011;30184;42.018;23.670;2022-07-31T20:48:18;20.38;;;14.70;;
44480;SDS011;30184;42.018;23.670;2022-07-31T20:59:10;20.08;;;14.40;;
44480;SDS011;30184;42.018;23.670;2022-07-31T21:05:13;19.25;;;15.38;;
44480;SDS011;30184;42.018;23.670;2022-07-31T21:08:13;18.75;;;15.15;;
44480;SDS011;30184;42.018;23.670;2022-07-31T21:10:44;22.20;;;16.58;;
44480;SDS011;30184;42.018;23.670;2022-07-31T21:16:02;18.45;;;14.07;;
44480;SDS011;30184;42.018;23.670;2022-07-31T21:18:40;19.13;;;13.63;;
44480;SDS011;30184;42.018;23.670;2022-07-31T21:21:22;21.17;;;16.85;;
44480;SDS011;30184;42.018;23.670;2022-07-31T21:23:53;20.42;;;15.52;;
44480;SDS011;30184;42.018;23.670;2022-07-31T21:26:35;25.65;;;16.15;;
44480;SDS011;30184;42.018;23.670;2022-07-31T21:33:31;24.65;;;17.65;;
44480;SDS011;30184;42.018;23.670;2022-07-31T21:36:14;28.95;;;17.42;;
44480;SDS011;30184;42.018;23.670;2022-07-31T21:38:44;24.25;;;16.10;;
44480;SDS011;30184;42.018;23.670;2022-07-31T21:41:14;17.48;;;13.82;;
44480;SDS011;30184;42.018;23.670;2022-07-31T21:43:58;18.08;;;13.95;;
44480;SDS011;30184;42.018;23.670;2022-07-31T21:47:01;17.17;;;13.50;;
44480;SDS011;30184;42.018;23.670;2022-07-31T21:50:08;15.32;;;13.20;;
44480;SDS011;30184;42.018;23.670;2022-07-31T21:52:54;20.80;;;14.57;;
44480;SDS011;30184;42.018;23.670;2022-07-31T21:55:29;19.10;;;14.57;;
44480;SDS011;30184;42.018;23.670;2022-07-31T21:58:35;16.45;;;12.38;;
44480;SDS011;30184;42.018;23.670;2022-07-31T22:35:54;22.70;;;17.75;;
44480;SDS011;30184;42.018;23.670;2022-07-31T22:43:04;25.40;;;17.17;;
44480;SDS011;30184;42.018;23.670;2022-07-31T22:50:59;19.00;;;14.90;;
44480;SDS011;30184;42.018;23.670;2022-07-31T22:56:14;19.63;;;15.57;;